This is the latest recevied weather packets stored in our database for station/object N8TWM-13. If no packets are shown the sender has not sent any weather packets the latest 1 day(s).
| Time | Temp. | Humidity | Pressure | Rain* | Wind** | Luminosity | Snow |
|---|---|---|---|---|---|---|---|
| 1778043252 | 8.33° C | 97% | 1008.4 hPa | 3.05 mm | 0 m/s | 0 W/m² | - |
| 1778042948 | 8.33° C | 97% | 1008.1 hPa | 3.05 mm | 0 m/s | 0 W/m² | - |
| 1778042646 | 8.33° C | 97% | 1008.5 hPa | 1.27 mm | 0 m/s | 0 W/m² | - |
| 1778042343 | 8.33° C | 97% | 1008.1 hPa | 3.05 mm | 0 m/s | 0 W/m² | - |
| 1778042040 | 8.33° C | 97% | 1008.3 hPa | 1.78 mm | 0 m/s | 0 W/m² | - |
| 1778041738 | 8.89° C | 97% | 1008.3 hPa | 0 mm | 0.45 m/s, 296° | 0 W/m² | - |
| 1778041437 | 8.89° C | 97% | 1008 hPa | 1.27 mm | 0 m/s | 0 W/m² | - |
| 1778041135 | 8.89° C | 97% | 1008 hPa | 1.27 mm | 0 m/s | 0 W/m² | - |
| 1778040832 | 8.33° C | 97% | 1008.1 hPa | 1.78 mm | 0 m/s | 0 W/m² | - |
| 1778040529 | 8.89° C | 97% | 1008.3 hPa | 1.78 mm | 0 m/s | 0 W/m² | - |
| 1778040227 | 8.89° C | 97% | 1008.3 hPa | 3.05 mm | 0 m/s | 0 W/m² | - |
| 1778039923 | 8.89° C | 97% | 1008.6 hPa | 1.27 mm | 0 m/s | 0 W/m² | - |
| 1778039620 | 8.89° C | 97% | 1008.5 hPa | 1.78 mm | 0 m/s | 0 W/m² | - |
| 1778039317 | 8.89° C | 97% | 1008.5 hPa | 3.05 mm | 0 m/s | 0 W/m² | - |
| 1778039014 | 8.89° C | 97% | 1008.7 hPa | 3.05 mm | 0 m/s | 0 W/m² | - |
| 1778038711 | 8.89° C | 97% | 1008.8 hPa | 3.56 mm | 0 m/s | 0 W/m² | - |
| 1778038408 | 8.89° C | 97% | 1008.7 hPa | 4.83 mm | 0 m/s | 0 W/m² | - |
| 1778038105 | 8.89° C | 97% | 1008.8 hPa | 4.83 mm | 0 m/s | 0 W/m² | - |
| 1778037802 | 8.89° C | 97% | 1009 hPa | 4.83 mm | 0 m/s | 0 W/m² | - |
| 1778037499 | 8.89° C | 97% | 1009.1 hPa | 3.05 mm | 0 m/s | 0 W/m² | - |
| 1778037196 | 8.89° C | 97% | 1009.2 hPa | 3.05 mm | 0.45 m/s, 112° | 0 W/m² | - |
| 1778036897 | 8.89° C | 97% | 1009.2 hPa | 3.05 mm | 0 m/s | 0 W/m² | - |
| 1778036592 | 8.89° C | 97% | 1009.1 hPa | 1.78 mm | 0 m/s | 0 W/m² | - |
| 1778036288 | 8.89° C | 97% | 1009.4 hPa | 1.27 mm | 0 m/s | 0 W/m² | - |
| 1778035984 | 8.89° C | 97% | 1009.3 hPa | 3.05 mm | 0 m/s | 0 W/m² | - |
* Rain latest hour (hover to see other rain measurements)
** Current wind speed in m/s (hover to see current wind gust speed)